West Olive, MI (49460)

2:40 AM EST on February 24, 2018 (GMT -0500)
Sheldon Dunes | | Change Station
Active Advisory: Flood Warning

Elev 646 ft 42.94 °N, 86.21 °W | Updated 48 seconds ago

Overcast
Overcast
31.5 °F
Feels Like 32 °F
N
0.0
Wind Variable Wind from North
Gusts 0.0 mph

Today
High -- | Low -- °F
--% Chance of Precip.
Yesterday
High -- | Low -- °F
Precip. -- in
Pressure 30.27 in
Visibility 10.0 miles
Clouds Scattered Clouds 2100 ft
Windchill 32 °F
Dew Point 26 °F
Humidity 81%
Rainfall 0.00 in
Snow Depth Not available.
7:28 AM 6:27 PM
First Quarter, 61% visible
SPECI KBIV 240711Z AUTO 36003KT 10SM SCT021 01/M02 A3027 RMK AO2 T00111022
Pressure 30.27 in
Visibility 10.0 miles
Clouds Scattered Clouds 2100 ft
Windchill 32 °F
Dew Point 26 °F
Humidity 81%
Rainfall 0.00 in
Snow Depth Not available.
7:28 AM 6:27 PM
First Quarter, 61% visible
SPECI KBIV 240711Z AUTO 36003KT 10SM SCT021 01/M02 A3027 RMK AO2 T00111022

Get Your Daily Forecast Email!

Thanks for signing up!

Be on the lookout for a verification email in your inbox.

You'll start receiving severe weather alerts in your inbox..

×

10-Day Weather Forecast

Almanac

Astronomy

Feb. 24, 2018 Rise Set
Actual Time
Civil Twilight
Nautical Twilight
Astronomical Twilight
Moon
Length of Visible Light
Length of Day
Tomorrow will be .
, % of the Moon is Illuminated

Today's Extremes

State Highs State Lows

Community

WunderPhotos

Category 6

Welcome to Category 6. This is the collective home for Weather Underground's featured writeups by Dr. Jeff Masters (right), Bob Henson (left), Chris Burt, and other regular contributors.

Nearby

Air Quality

  Air Quality AQ Index Pollutant
Not available.

Snow Depth

Station Depth Elevation

Earthquake Activity

City Distance Mag. Time & Date
Minimum magnitude displayed is 2.5.

Coastal Water Temperatures

Place Temperature

Stations

Nearby Weather Stations

Station Location Temp. Windchill Dew Point Humidity Wind Precip. Elev Updated Type
                   

Watches & Warnings

Flood Warning
Issued: 10:21 PM EST Feb. 23, 2018 – National Weather Service

The Flood Warning continues for
the Grand River at Robinson township.
* Until Saturday March 03.
* At 6:30 PM Friday the stage was 14.2 feet.
* Flood stage is 13.3 feet.
* Minor flooding is occurring and moderate flooding is forecast.
* Forecast, the river will continue rising to near 16.5 feet by
Sunday early afternoon. The river will fall below flood stage late
Friday morning.
* Impact, at 17.0 feet... vanlopik Road is 3 to 4 feet under water.
Moderate flooding of several homes in vanlopik subdivision occurs.
* Flood history, this crest compares to a previous crest of 17.0 feet
on Apr 19 2013.


Lat... Lon 4307 8610 4304 8591 4297 8583 4291 8589
      4297 8595 4300 8610